Time;durP1;ratioP1;P1;durP2;ratioP2;P2;SDS_P1;SDS_P2;PMS_P1;PMS_P2;Temp;Humidity;BMP_temperature;BMP_pressure;BME280_temperature;BME280_humidity;BME280_pressure;Samples;Min_cycle;Max_cycle;Signal;HPM_P1;HPM_P2
2023/03/27 00:01:24;;;;;;;;;;;;;;;7.98;59.87;94223.41;5035071;28;1140;-59
2023/03/27 00:03:50;;;;;;;;;;;;;;;7.94;57.48;94218.59;5036520;28;965;-59
2023/03/27 00:06:18;;;;;;;;;;;;;;;7.74;58.35;94205.63;5036346;28;1020;-59
2023/03/27 00:08:45;;;;;;;;;;;;;;;7.99;57.39;94206.44;5036491;28;1023;-59
2023/03/27 00:11:11;;;;;;;;;;;;;;;8.18;58.94;94199.09;5036405;28;957;-59
2023/03/27 00:13:38;;;;;;;;;;;;;;;8.22;58.75;94200.41;5035172;28;1056;-59
2023/03/27 00:16:04;;;;;;;;;;;;;;;8.16;59.28;94193.13;5036299;28;1028;-59
2023/03/27 00:18:32;;;;;;;;;;;;;;;7.88;59.78;94200.63;5035906;28;1499;-59
2023/03/27 00:20:59;;;;;;;;;;;;;;;7.79;60.21;94200.63;5036121;28;1902;-59
2023/03/27 00:23:28;;;;;;;;;;;;;;;7.85;59.98;94195.63;5039787;28;1858;-59
2023/03/27 00:25:56;;;;;;;;;;;;;;;7.79;60.59;94197.13;5055828;28;1097;-59
2023/03/27 00:28:25;;;;;;;;;;;;;;;7.57;60.38;94188.00;5055805;28;1244;-60
2023/03/27 00:30:52;;;;;;;;;;;;;;;7.40;60.07;94187.19;5056062;28;1236;-59
2023/03/27 00:33:18;;;;;;;;;;;;;;;7.38;60.19;94171.38;5055811;28;1067;-59
2023/03/27 00:35:44;;;;;;;;;;;;;;;7.24;59.63;94170.19;5055539;28;1116;-59
2023/03/27 00:38:11;;;;;;;;;;;;;;;7.42;59.18;94170.06;5055578;28;1004;-59
2023/03/27 00:40:37;;;;;;;;;;;;;;;7.63;60.05;94174.88;5055374;28;1918;-59
2023/03/27 00:43:22;;;;;;;;;;;;;;;7.76;61.70;94177.03;5055792;28;980;-59
2023/03/27 00:45:49;;;;;;;;;;;;;;;7.42;62.05;94179.88;5055449;28;1037;-59
2023/03/27 00:48:17;;;;;;;;;;;;;;;7.34;62.89;94169.19;5055242;28;1110;-59
2023/03/27 00:50:43;;;;;;;;;;;;;;;7.30;62.57;94166.03;5055242;28;1037;-58
2023/03/27 00:53:12;;;;;;;;;;;;;;;7.47;61.26;94156.25;5055304;28;1136;-58
2023/03/27 00:55:40;;;;;;;;;;;;;;;7.54;60.78;94159.91;5055214;28;1041;-59
2023/03/27 00:58:08;;;;;;;;;;;;;;;7.15;61.00;94147.28;5055479;28;1039;-59
2023/03/27 01:00:34;;;;;;;;;;;;;;;7.03;61.25;94151.22;5054982;28;2001;-59
2023/03/27 01:03:03;;;;;;;;;;;;;;;7.22;61.63;94139.47;5055129;28;1092;-59
2023/03/27 01:05:29;;;;;;;;;;;;;;;7.38;62.12;94141.28;5054901;28;1054;-59
2023/03/27 01:07:56;;;;;;;;;;;;;;;7.23;61.41;94125.19;5055280;28;986;-59
2023/03/27 01:10:28;;;;;;;;;;;;;;;7.32;61.08;94132.16;5054957;28;1852;-59
2023/03/27 01:13:17;;;;;;;;;;;;;;;7.24;61.56;94132.16;5054993;28;1042;-59
2023/03/27 01:15:50;;;;;;;;;;;;;;;7.31;61.24;94137.66;5054737;28;1384;-59
2023/03/27 01:18:28;;;;;;;;;;;;;;;7.36;61.18;94132.63;5055067;28;1055;-59
2023/03/27 01:21:06;;;;;;;;;;;;;;;7.08;62.02;94135.63;5054623;28;1983;-59
2023/03/27 01:23:32;;;;;;;;;;;;;;;6.90;63.02;94148.22;5054869;28;1359;-59
2023/03/27 01:26:17;;;;;;;;;;;;;;;7.06;63.71;94145.59;5053452;28;1084;-59
2023/03/27 01:29:02;;;;;;;;;;;;;;;7.11;62.90;94140.59;5054394;28;1090;-59
2023/03/27 01:31:40;;;;;;;;;;;;;;;6.85;62.12;94132.78;5054772;28;1044;-59
2023/03/27 01:34:15;;;;;;;;;;;;;;;6.53;62.61;94114.94;5054643;28;1016;-59
2023/03/27 01:37:01;;;;;;;;;;;;;;;6.54;62.54;94113.94;5054639;28;1064;-59
2023/03/27 01:39:34;;;;;;;;;;;;;;;6.58;62.26;94102.00;5054493;28;1902;-59
2023/03/27 01:42:06;;;;;;;;;;;;;;;6.61;63.30;94117.59;5054371;28;1034;-59
2023/03/27 01:44:38;;;;;;;;;;;;;;;6.61;62.80;94121.09;5054198;28;1030;-59
2023/03/27 01:47:06;;;;;;;;;;;;;;;6.10;63.66;94106.16;5054186;28;1030;-59
2023/03/27 01:49:43;;;;;;;;;;;;;;;6.14;64.30;94110.16;5054382;28;969;-59
2023/03/27 01:52:13;;;;;;;;;;;;;;;6.21;63.19;94097.91;5054253;28;1105;-58
2023/03/27 01:54:42;;;;;;;;;;;;;;;6.18;64.37;94091.06;5054149;28;1061;-59
2023/03/27 01:57:21;;;;;;;;;;;;;;;5.96;64.24;94089.84;5054224;28;985;-59
2023/03/27 01:59:53;;;;;;;;;;;;;;;5.74;64.32;94069.97;5053559;28;1910;-59
2023/03/27 02:02:23;;;;;;;;;;;;;;;5.58;64.15;94073.38;5053836;28;990;-59
2023/03/27 02:04:55;;;;;;;;;;;;;;;5.98;65.09;94063.97;5053900;28;1100;-59
2023/03/27 02:07:26;;;;;;;;;;;;;;;5.96;63.71;94044.75;5054034;28;1059;-59
2023/03/27 02:09:55;;;;;;;;;;;;;;;5.77;63.98;94066.19;5053957;28;1060;-59
2023/03/27 02:12:29;;;;;;;;;;;;;;;5.85;64.53;94048.47;5053778;28;1049;-59
2023/03/27 02:14:59;;;;;;;;;;;;;;;5.99;64.98;94057.66;5053735;28;977;-58
2023/03/27 02:17:26;;;;;;;;;;;;;;;6.00;64.73;94051.38;5053904;28;969;-58
2023/03/27 02:19:58;;;;;;;;;;;;;;;6.01;63.96;94055.72;5053711;28;1997;-59
2023/03/27 02:22:24;;;;;;;;;;;;;;;6.09;63.20;94046.09;5053591;28;1254;-59
2023/03/27 02:24:54;;;;;;;;;;;;;;;6.15;63.76;94048.13;5053611;28;1149;-58
2023/03/27 02:27:27;;;;;;;;;;;;;;;6.35;63.28;94043.34;5053469;28;1112;-59
2023/03/27 02:30:14;;;;;;;;;;;;;;;6.50;62.67;94027.63;5053410;28;1123;-59
2023/03/27 02:32:47;;;;;;;;;;;;;;;5.75;63.02;94021.25;5053490;28;1120;-59
2023/03/27 02:35:14;;;;;;;;;;;;;;;5.84;63.22;94014.13;5053311;28;1049;-59
2023/03/27 02:37:46;;;;;;;;;;;;;;;5.83;62.79;93994.75;5053374;28;1124;-58
2023/03/27 02:40:18;;;;;;;;;;;;;;;5.83;63.79;94001.88;5053150;28;1989;-59
2023/03/27 02:43:00;;;;;;;;;;;;;;;5.78;64.25;93986.44;5053322;28;1038;-59
2023/03/27 02:45:41;;;;;;;;;;;;;;;5.78;64.33;93977.66;5053506;28;962;-59
2023/03/27 02:48:16;;;;;;;;;;;;;;;5.91;65.11;93974.56;5053289;28;1124;-59
2023/03/27 02:50:45;;;;;;;;;;;;;;;6.03;65.33;93970.63;5053409;28;1009;-61
2023/03/27 02:53:14;;;;;;;;;;;;;;;6.06;64.93;93957.03;5053502;28;1024;-59
2023/03/27 02:55:43;;;;;;;;;;;;;;;6.06;65.51;93960.50;5053152;28;1112;-59
2023/03/27 02:58:13;;;;;;;;;;;;;;;5.92;66.35;93958.47;5053195;28;1089;-59
2023/03/27 03:00:42;;;;;;;;;;;;;;;5.96;65.64;93964.31;5053325;28;1953;-59
2023/03/27 03:03:12;;;;;;;;;;;;;;;5.81;65.07;93980.00;5053034;28;1057;-59
2023/03/27 03:05:39;;;;;;;;;;;;;;;5.74;66.32;93977.13;5053320;28;973;-59
2023/03/27 03:08:08;;;;;;;;;;;;;;;5.77;64.79;93978.66;5053348;28;1008;-59
2023/03/27 03:10:35;;;;;;;;;;;;;;;5.91;64.57;93983.34;5053745;28;1045;-59
2023/03/27 03:13:01;;;;;;;;;;;;;;;5.82;64.69;93992.25;5057548;28;1063;-59
2023/03/27 03:15:27;;;;;;;;;;;;;;;5.74;65.03;93992.22;5057278;28;962;-59
2023/03/27 03:17:53;;;;;;;;;;;;;;;5.79;65.39;93987.28;5057355;28;973;-59
2023/03/27 03:20:20;;;;;;;;;;;;;;;5.75;66.17;93989.41;5056761;28;1910;-59
2023/03/27 03:22:46;;;;;;;;;;;;;;;5.95;66.26;93973.22;5057139;28;1051;-59
2023/03/27 03:25:13;;;;;;;;;;;;;;;5.86;65.63;93967.06;5055839;28;1614;-59
2023/03/27 03:27:40;;;;;;;;;;;;;;;5.51;65.64;93965.47;5056805;28;1141;-59
2023/03/27 03:30:08;;;;;;;;;;;;;;;5.51;65.19;93965.47;5056631;28;1094;-59
2023/03/27 03:32:34;;;;;;;;;;;;;;;5.54;65.29;93965.13;5056915;28;1021;-59
2023/03/27 03:35:00;;;;;;;;;;;;;;;5.79;65.23;93955.47;5056977;28;1032;-59
2023/03/27 03:37:27;;;;;;;;;;;;;;;5.94;65.51;93951.19;5056810;28;1012;-59
2023/03/27 03:39:56;;;;;;;;;;;;;;;5.98;65.91;93944.59;5056848;28;1886;-59
2023/03/27 03:42:22;;;;;;;;;;;;;;;5.99;65.24;93948.06;5056561;28;1030;-59
2023/03/27 03:44:48;;;;;;;;;;;;;;;5.84;65.50;93939.88;5056786;28;1076;-59
2023/03/27 03:47:14;;;;;;;;;;;;;;;5.59;65.69;93929.19;5056835;28;1061;-59
2023/03/27 03:49:41;;;;;;;;;;;;;;;5.34;65.72;93922.97;5056591;28;1040;-59
2023/03/27 03:52:07;;;;;;;;;;;;;;;5.09;66.50;93928.16;5056678;28;1036;-58
2023/03/27 03:54:33;;;;;;;;;;;;;;;5.33;66.24;93923.13;5056658;28;1052;-57
2023/03/27 03:56:59;;;;;;;;;;;;;;;5.51;65.35;93915.91;5056372;28;1051;-57
2023/03/27 03:59:25;;;;;;;;;;;;;;;5.59;66.01;93918.56;5056076;28;1983;-57
2023/03/27 04:01:51;;;;;;;;;;;;;;;5.56;65.13;93918.91;5056574;28;965;-56
2023/03/27 04:04:17;;;;;;;;;;;;;;;5.47;66.08;93914.56;5055981;28;1061;-57
2023/03/27 04:06:44;;;;;;;;;;;;;;;5.53;66.04;93915.75;5055366;28;1060;-57
2023/03/27 04:09:10;;;;;;;;;;;;;;;5.53;65.95;93921.88;5056172;28;977;-57
2023/03/27 04:11:36;;;;;;;;;;;;;;;5.51;66.37;93913.25;5055265;28;1315;-57
2023/03/27 04:14:02;;;;;;;;;;;;;;;5.40;66.71;93914.38;5056059;28;981;-57
2023/03/27 04:16:28;;;;;;;;;;;;;;;5.59;66.08;93904.50;5056139;28;970;-57
2023/03/27 04:18:54;;;;;;;;;;;;;;;5.62;65.82;93904.19;5056025;28;1910;-57
2023/03/27 04:21:20;;;;;;;;;;;;;;;5.76;65.61;93900.06;5055328;28;1053;-57
2023/03/27 04:23:50;;;;;;;;;;;;;;;5.70;66.02;93914.81;5056080;28;1534;-58
2023/03/27 04:26:16;;;;;;;;;;;;;;;5.67;66.26;93917.78;5055735;28;1093;-57
2023/03/27 04:28:42;;;;;;;;;;;;;;;5.71;65.52;93915.63;5055515;28;1105;-57
2023/03/27 04:31:09;;;;;;;;;;;;;;;5.76;66.17;93910.69;5055719;28;1105;-56
2023/03/27 04:33:45;;;;;;;;;;;;;;;5.94;65.71;93915.84;5055600;28;1037;-58
2023/03/27 04:36:15;;;;;;;;;;;;;;;6.05;65.99;93931.47;5054561;28;1032;-58
2023/03/27 04:38:41;;;;;;;;;;;;;;;6.19;65.04;93917.59;5055591;28;1053;-58
2023/03/27 04:41:07;;;;;;;;;;;;;;;6.05;64.65;93921.72;5055487;28;1906;-58
2023/03/27 04:43:35;;;;;;;;;;;;;;;6.29;62.45;93928.03;5055401;28;1218;-58
2023/03/27 04:46:02;;;;;;;;;;;;;;;6.73;61.33;93917.06;5055460;28;1050;-59
2023/03/27 04:48:28;;;;;;;;;;;;;;;7.07;62.72;93921.34;5054262;28;1021;-59
2023/03/27 04:50:54;;;;;;;;;;;;;;;7.16;62.50;93928.28;5055462;28;957;-58
2023/03/27 04:53:22;;;;;;;;;;;;;;;7.31;62.06;93936.41;5055207;28;1054;-58
2023/03/27 04:55:49;;;;;;;;;;;;;;;7.67;61.54;93921.81;5055532;28;1007;-58
2023/03/27 04:58:16;;;;;;;;;;;;;;;7.95;60.35;93925.66;5055444;28;1035;-58
2023/03/27 05:00:49;;;;;;;;;;;;;;;8.37;59.14;93932.38;5055322;28;2000;-59
2023/03/27 05:03:18;;;;;;;;;;;;;;;8.67;57.77;93927.19;5055007;28;1060;-59
2023/03/27 05:05:48;;;;;;;;;;;;;;;8.87;57.22;93916.03;5055410;28;970;-59
2023/03/27 05:08:14;;;;;;;;;;;;;;;8.61;58.15;93901.25;5055324;28;1028;-59
2023/03/27 05:10:41;;;;;;;;;;;;;;;8.57;57.79;93906.13;5055245;28;992;-61
2023/03/27 05:13:07;;;;;;;;;;;;;;;8.53;58.23;93894.16;5055104;28;949;-59
2023/03/27 05:15:33;;;;;;;;;;;;;;;8.64;57.94;93884.91;5054989;28;1028;-58
2023/03/27 05:17:59;;;;;;;;;;;;;;;8.89;56.90;93893.50;5055028;28;986;-58
2023/03/27 05:20:26;;;;;;;;;;;;;;;9.14;56.08;93872.75;5054679;28;2003;-58
2023/03/27 05:22:53;;;;;;;;;;;;;;;9.34;55.87;93866.88;5053583;28;1009;-58
2023/03/27 05:25:19;;;;;;;;;;;;;;;9.53;54.55;93863.63;5053759;28;1529;-57
2023/03/27 05:27:46;;;;;;;;;;;;;;;10.00;52.61;93849.97;5054640;28;1034;-58
2023/03/27 05:30:17;;;;;;;;;;;;;;;10.65;50.89;93838.28;5054440;28;1066;-58
2023/03/27 05:32:47;;;;;;;;;;;;;;;11.04;50.05;93836.94;5054417;28;981;-59
2023/03/27 05:35:17;;;;;;;;;;;;;;;11.30;49.64;93828.22;5052852;28;1053;-58
2023/03/27 05:37:46;;;;;;;;;;;;;;;11.51;48.65;93824.66;5053435;28;973;-57
2023/03/27 05:40:14;;;;;;;;;;;;;;;11.65;48.25;93816.66;5054329;28;1918;-55
2023/03/27 05:42:44;;;;;;;;;;;;;;;11.82;47.21;93811.75;5054462;28;1120;-56
2023/03/27 05:45:10;;;;;;;;;;;;;;;12.00;46.94;93787.94;5054263;28;1053;-56
2023/03/27 05:48:03;;;;;;;;;;;;;;;12.11;46.94;93767.78;5054348;28;989;-55
2023/03/27 05:50:31;;;;;;;;;;;;;;;12.22;46.07;93769.03;5052364;28;1272;-56
2023/03/27 05:52:58;;;;;;;;;;;;;;;12.26;46.57;93741.59;5054196;28;917;-54
2023/03/27 05:55:26;;;;;;;;;;;;;;;12.27;46.51;93712.94;5054286;28;1067;-57
2023/03/27 05:57:52;;;;;;;;;;;;;;;12.24;46.45;93698.13;5054481;28;969;-57
2023/03/27 06:00:23;;;;;;;;;;;;;;;12.34;46.62;93691.53;5052887;28;1906;-56
2023/03/27 06:02:52;;;;;;;;;;;;;;;12.37;46.23;93677.69;5053977;28;1084;-56
2023/03/27 06:05:18;;;;;;;;;;;;;;;12.37;46.37;93689.25;5054168;28;1028;-55
2023/03/27 06:07:46;;;;;;;;;;;;;;;12.37;46.34;93672.31;5053931;28;1078;-54
2023/03/27 06:10:13;;;;;;;;;;;;;;;12.33;46.28;93682.66;5054156;28;1024;-56
2023/03/27 06:12:40;;;;;;;;;;;;;;;12.39;46.49;93667.59;5054010;28;1021;-57
2023/03/27 06:15:07;;;;;;;;;;;;;;;12.40;46.69;93666.56;5053778;28;1041;-57
2023/03/27 06:17:34;;;;;;;;;;;;;;;12.44;46.49;93676.66;5053910;28;1043;-57
2023/03/27 06:20:01;;;;;;;;;;;;;;;12.53;46.18;93682.63;5053924;28;1914;-56
2023/03/27 06:22:27;;;;;;;;;;;;;;;12.72;46.00;93678.25;5053845;28;1005;-54
2023/03/27 06:24:53;;;;;;;;;;;;;;;12.88;45.29;93676.97;5053782;28;1625;-57
2023/03/27 06:27:20;;;;;;;;;;;;;;;12.93;45.12;93681.72;5053481;28;1046;-56
2023/03/27 06:33:18;;;;;;;;;;;;;;;13.07;44.95;93688.66;5053673;28;953;-57
2023/03/27 06:35:45;;;;;;;;;;;;;;;13.28;44.54;93677.66;5053332;28;1220;-57
2023/03/27 06:38:14;;;;;;;;;;;;;;;14.31;42.77;93677.63;5053238;28;1049;-57
2023/03/27 06:40:40;;;;;;;;;;;;;;;15.26;40.80;93682.69;5053513;28;1910;-58
2023/03/27 06:43:07;;;;;;;;;;;;;;;15.88;39.96;93700.53;5053469;28;985;-56
2023/03/27 06:45:34;;;;;;;;;;;;;;;16.27;39.31;93703.69;5052867;28;1109;-57
2023/03/27 06:48:02;;;;;;;;;;;;;;;16.56;38.46;93697.41;5053436;28;1061;-56
2023/03/27 06:50:29;;;;;;;;;;;;;;;17.12;37.67;93702.47;5053471;28;989;-56
2023/03/27 06:52:55;;;;;;;;;;;;;;;17.43;37.29;93701.22;5053034;28;1042;-55
2023/03/27 06:55:22;;;;;;;;;;;;;;;17.89;36.23;93688.66;5053202;28;1036;-57
2023/03/27 06:57:50;;;;;;;;;;;;;;;18.26;35.79;93690.13;5053015;28;1065;-57
2023/03/27 07:00:22;;;;;;;;;;;;;;;18.94;34.62;93692.84;5052906;28;1901;-57
2023/03/27 07:02:52;;;;;;;;;;;;;;;19.20;34.31;93700.28;5053208;28;1065;-57
2023/03/27 07:05:18;;;;;;;;;;;;;;;19.67;33.59;93702.50;5052904;28;1042;-58
2023/03/27 07:07:45;;;;;;;;;;;;;;;19.81;33.77;93702.16;5053297;28;1031;-57
2023/03/27 07:10:11;;;;;;;;;;;;;;;19.91;33.13;93707.69;5052879;28;1136;-57
2023/03/27 07:12:37;;;;;;;;;;;;;;;19.76;33.44;93704.81;5052961;28;1088;-56
2023/03/27 07:15:05;;;;;;;;;;;;;;;19.96;33.48;93706.94;5052879;28;1050;-57
2023/03/27 07:17:31;;;;;;;;;;;;;;;19.91;32.92;93706.88;5052994;28;1039;-56
2023/03/27 07:19:57;;;;;;;;;;;;;;;20.17;33.70;93705.25;5052877;28;1981;-56
2023/03/27 07:22:24;;;;;;;;;;;;;;;19.55;33.22;93711.84;5053014;28;1043;-57
2023/03/27 07:24:50;;;;;;;;;;;;;;;19.79;33.25;93691.56;5053048;28;1646;-57
2023/03/27 07:27:16;;;;;;;;;;;;;;;19.93;32.83;93700.13;5052928;28;1003;-56
2023/03/27 07:29:42;;;;;;;;;;;;;;;19.54;33.01;93691.22;5053146;28;981;-57
2023/03/27 07:32:08;;;;;;;;;;;;;;;19.66;32.89;93695.44;5052591;28;1209;-57
2023/03/27 07:34:34;;;;;;;;;;;;;;;20.21;32.43;93682.78;5052945;28;1051;-57
2023/03/27 07:37:00;;;;;;;;;;;;;;;19.66;33.02;93679.16;5052743;28;1073;-54
2023/03/27 07:39:26;;;;;;;;;;;;;;;18.44;34.48;93662.00;5052559;28;1902;-55
2023/03/27 07:41:52;;;;;;;;;;;;;;;17.81;35.28;93658.47;5052980;28;1327;-55
2023/03/27 07:44:18;;;;;;;;;;;;;;;17.35;35.73;93658.41;5052969;28;977;-56
2023/03/27 07:46:45;;;;;;;;;;;;;;;17.16;36.25;93649.63;5052941;28;1055;-55
2023/03/27 07:49:12;;;;;;;;;;;;;;;17.07;36.22;93651.06;5052658;28;1243;-55
2023/03/27 07:51:38;;;;;;;;;;;;;;;16.95;36.25;93638.41;5052660;28;1108;-54
2023/03/27 07:54:04;;;;;;;;;;;;;;;17.00;36.45;93642.25;5052847;28;1075;-55
2023/03/27 07:56:32;;;;;;;;;;;;;;;16.97;36.06;93649.78;5053122;28;961;-55
2023/03/27 07:58:59;;;;;;;;;;;;;;;17.03;35.76;93639.09;5056514;28;1009;-55
2023/03/27 08:01:25;;;;;;;;;;;;;;;17.12;35.55;93635.78;5056218;28;960;-55
2023/03/27 08:03:51;;;;;;;;;;;;;;;17.03;35.36;93641.81;5056272;28;989;-55
2023/03/27 08:06:17;;;;;;;;;;;;;;;17.08;35.04;93639.22;5056493;28;970;-54
2023/03/27 08:08:43;;;;;;;;;;;;;;;17.05;35.08;93645.06;5056346;28;1067;-54
2023/03/27 08:11:09;;;;;;;;;;;;;;;17.02;35.30;93648.28;5056066;28;1053;-55
2023/03/27 08:13:35;;;;;;;;;;;;;;;17.19;35.20;93659.97;5056361;28;1020;-54
2023/03/27 08:16:05;;;;;;;;;;;;;;;17.24;34.72;93660.06;5056001;28;1007;-55
2023/03/27 08:18:31;;;;;;;;;;;;;;;17.20;35.32;93653.50;5055667;28;1021;-55
2023/03/27 08:20:59;;;;;;;;;;;;;;;17.07;35.16;93659.97;5056151;28;1914;-55
2023/03/27 08:23:26;;;;;;;;;;;;;;;17.00;35.37;93664.69;5056007;28;1604;-54
2023/03/27 08:25:52;;;;;;;;;;;;;;;16.82;35.77;93657.53;5055608;28;1258;-54
2023/03/27 08:28:19;;;;;;;;;;;;;;;16.74;35.68;93671.38;5055987;28;965;-55
2023/03/27 08:30:45;;;;;;;;;;;;;;;16.75;35.81;93656.81;5055704;28;1109;-55
2023/03/27 08:33:11;;;;;;;;;;;;;;;16.72;35.91;93658.13;5055480;28;1208;-55
2023/03/27 08:35:37;;;;;;;;;;;;;;;16.72;36.25;93668.91;5055646;28;1093;-55
2023/03/27 08:38:03;;;;;;;;;;;;;;;16.77;36.49;93677.13;5055784;28;1057;-55
2023/03/27 08:40:30;;;;;;;;;;;;;;;16.65;37.38;93670.09;5055626;28;1909;-55
2023/03/27 08:43:01;;;;;;;;;;;;;;;16.39;39.80;93647.91;5055663;28;1018;-54
2023/03/27 08:45:28;;;;;;;;;;;;;;;16.24;39.71;93671.78;5055442;28;1017;-55
2023/03/27 08:48:01;;;;;;;;;;;;;;;16.16;39.58;93672.97;5055286;28;978;-55
2023/03/27 08:50:32;;;;;;;;;;;;;;;16.14;40.94;93659.72;5055249;28;1070;-54
2023/03/27 08:52:59;;;;;;;;;;;;;;;16.04;41.89;93651.38;5055508;28;998;-54
2023/03/27 08:55:33;;;;;;;;;;;;;;;16.09;42.61;93638.03;5055513;28;1048;-55
2023/03/27 08:57:59;;;;;;;;;;;;;;;16.11;42.35;93638.63;5055612;28;978;-55
2023/03/27 09:00:38;;;;;;;;;;;;;;;16.26;41.67;93640.03;5053851;28;1994;-54
2023/03/27 09:03:07;;;;;;;;;;;;;;;16.57;41.93;93628.09;5054162;28;954;-55
2023/03/27 09:05:39;;;;;;;;;;;;;;;16.67;41.73;93620.22;5054001;28;998;-55
2023/03/27 09:08:09;;;;;;;;;;;;;;;16.88;41.36;93605.31;5053846;28;1089;-55
2023/03/27 09:10:47;;;;;;;;;;;;;;;17.05;39.64;93616.19;5055159;28;1025;-54
2023/03/27 09:13:20;;;;;;;;;;;;;;;17.16;39.32;93620.75;5054718;28;978;-55
2023/03/27 09:15:49;;;;;;;;;;;;;;;17.42;38.15;93617.75;5055463;28;1060;-55
2023/03/27 09:18:22;;;;;;;;;;;;;;;17.60;35.81;93631.03;5054733;28;1117;-54
2023/03/27 09:20:51;;;;;;;;;;;;;;;17.62;39.12;93601.91;5054787;28;1894;-55
2023/03/27 09:23:27;;;;;;;;;;;;;;;17.48;39.75;93614.88;5054779;28;1541;-55
2023/03/27 09:25:55;;;;;;;;;;;;;;;17.27;36.13;93624.47;5054819;28;969;-54
2023/03/27 09:28:25;;;;;;;;;;;;;;;17.13;36.21;93636.59;5054357;28;1120;-55
2023/03/27 09:30:51;;;;;;;;;;;;;;;16.93;36.64;93631.59;5054932;28;1556;-56
2023/03/27 09:33:18;;;;;;;;;;;;;;;16.77;36.02;93623.16;5054692;28;1151;-55
2023/03/27 09:35:45;;;;;;;;;;;;;;;16.84;36.85;93614.94;5054707;28;1031;-55
2023/03/27 09:38:11;;;;;;;;;;;;;;;16.95;36.92;93627.59;5054534;28;966;-55
2023/03/27 09:40:39;;;;;;;;;;;;;;;16.77;39.76;93609.66;5054252;28;1914;-54
2023/03/27 09:43:07;;;;;;;;;;;;;;;16.46;42.47;93610.03;5054288;28;1036;-55
2023/03/27 09:45:37;;;;;;;;;;;;;;;16.28;41.72;93609.09;5054388;28;1053;-55
2023/03/27 09:48:06;;;;;;;;;;;;;;;16.16;40.39;93600.16;5054364;28;1056;-55
2023/03/27 09:50:44;;;;;;;;;;;;;;;16.38;39.75;93590.44;5054246;28;1561;-55
2023/03/27 09:53:22;;;;;;;;;;;;;;;16.55;38.22;93589.75;5054302;28;981;-55
2023/03/27 09:55:49;;;;;;;;;;;;;;;16.35;40.61;93579.31;5054071;28;1053;-55
2023/03/27 09:58:21;;;;;;;;;;;;;;;16.35;37.90;93598.19;5054039;28;1055;-54
2023/03/27 10:00:48;;;;;;;;;;;;;;;16.41;37.06;93591.88;5054022;28;1918;-55
2023/03/27 10:03:16;;;;;;;;;;;;;;;16.42;37.26;93590.78;5054211;28;1048;-55
2023/03/27 10:05:43;;;;;;;;;;;;;;;16.43;36.90;93592.44;5052844;28;1065;-55
2023/03/27 10:08:27;;;;;;;;;;;;;;;16.37;36.73;93583.41;5054014;28;982;-55
2023/03/27 10:10:57;;;;;;;;;;;;;;;16.49;36.78;93580.72;5053985;28;964;-55
2023/03/27 10:13:25;;;;;;;;;;;;;;;16.54;36.49;93583.53;5053781;28;1035;-54
2023/03/27 10:15:57;;;;;;;;;;;;;;;16.62;36.32;93576.94;5053527;28;1042;-55
2023/03/27 10:18:26;;;;;;;;;;;;;;;16.70;36.75;93565.78;5053962;28;957;-55
2023/03/27 10:20:53;;;;;;;;;;;;;;;16.88;36.53;93574.81;5053348;28;1913;-55
2023/03/27 10:23:24;;;;;;;;;;;;;;;16.90;36.58;93575.38;5053514;28;1549;-56
2023/03/27 10:25:51;;;;;;;;;;;;;;;16.87;37.33;93578.59;5053478;28;1065;-56
2023/03/27 10:28:20;;;;;;;;;;;;;;;16.75;36.54;93584.78;5053252;28;1045;-55
2023/03/27 10:30:56;;;;;;;;;;;;;;;16.63;36.52;93608.25;5053393;28;965;-55
2023/03/27 10:33:32;;;;;;;;;;;;;;;16.33;39.10;93611.06;5053639;28;1020;-55
2023/03/27 10:35:59;;;;;;;;;;;;;;;15.96;42.76;93611.28;5053376;28;1046;-55
2023/03/27 10:38:26;;;;;;;;;;;;;;;15.70;45.33;93599.00;5053468;28;1055;-55
2023/03/27 10:40:53;;;;;;;;;;;;;;;15.29;49.04;93585.31;5053278;28;1914;-53
2023/03/27 10:43:19;;;;;;;;;;;;;;;15.03;51.48;93573.84;5053491;28;1052;-55
2023/03/27 10:45:48;;;;;;;;;;;;;;;14.79;55.12;93574.75;5053456;28;961;-55
2023/03/27 10:48:27;;;;;;;;;;;;;;;14.61;57.44;93583.69;5053508;28;1068;-55
2023/03/27 10:50:57;;;;;;;;;;;;;;;14.45;57.77;93587.72;5053285;28;1034;-55
2023/03/27 10:53:29;;;;;;;;;;;;;;;14.15;58.50;93584.91;5053280;28;1087;-55
2023/03/27 10:56:10;;;;;;;;;;;;;;;13.78;60.82;93569.53;5053162;28;1054;-55
2023/03/27 10:58:36;;;;;;;;;;;;;;;13.52;62.49;93548.28;5053312;28;1029;-55
2023/03/27 11:01:16;;;;;;;;;;;;;;;13.27;64.77;93539.13;5053102;28;1913;-55
2023/03/27 11:03:50;;;;;;;;;;;;;;;13.22;66.04;93562.28;5052956;28;1089;-55
2023/03/27 11:06:18;;;;;;;;;;;;;;;13.20;66.17;93564.34;5052945;28;1085;-55
2023/03/27 11:08:44;;;;;;;;;;;;;;;13.23;65.79;93571.97;5052962;28;1112;-54
2023/03/27 11:11:19;;;;;;;;;;;;;;;13.14;66.11;93570.59;5053164;28;1076;-54
2023/03/27 11:13:46;;;;;;;;;;;;;;;13.05;66.48;93572.69;5053050;28;1040;-55
2023/03/27 11:16:30;;;;;;;;;;;;;;;12.97;67.52;93581.00;5052924;28;1045;-54
2023/03/27 11:18:59;;;;;;;;;;;;;;;12.83;66.00;93585.59;5053162;28;977;-54
2023/03/27 11:21:36;;;;;;;;;;;;;;;12.76;66.05;93598.22;5053065;28;1979;-54
2023/03/27 11:24:04;;;;;;;;;;;;;;;12.57;66.79;93605.28;5051751;28;1824;-55
2023/03/27 11:26:36;;;;;;;;;;;;;;;12.49;67.73;93623.25;5052807;28;1077;-55
2023/03/27 11:29:12;;;;;;;;;;;;;;;12.52;67.41;93674.78;5052683;28;1128;-55
2023/03/27 11:31:49;;;;;;;;;;;;;;;12.39;67.33;93729.25;5053635;28;1231;-55
2023/03/27 11:34:24;;;;;;;;;;;;;;;11.77;67.52;93756.13;5056907;28;1004;-54
2023/03/27 11:36:53;;;;;;;;;;;;;;;11.13;67.53;93752.84;5056816;28;1034;-54
2023/03/27 11:39:35;;;;;;;;;;;;;;;10.79;69.72;93774.22;5056515;28;1910;-55
2023/03/27 11:42:04;;;;;;;;;;;;;;;10.51;71.15;93796.47;5055856;28;1014;-55
2023/03/27 11:44:30;;;;;;;;;;;;;;;10.45;71.21;93787.38;5056808;28;965;-54
2023/03/27 11:47:09;;;;;;;;;;;;;;;10.46;73.60;93782.84;5056778;28;1032;-55
2023/03/27 11:49:49;;;;;;;;;;;;;;;10.29;71.61;93790.28;5056636;28;1117;-54
2023/03/27 11:52:21;;;;;;;;;;;;;;;10.21;72.21;93799.25;5056753;28;1051;-55
2023/03/27 11:54:47;;;;;;;;;;;;;;;9.99;72.17;93830.47;5056601;28;1070;-55
2023/03/27 11:57:20;;;;;;;;;;;;;;;9.81;72.63;93819.38;5056706;28;969;-55
2023/03/27 12:00:04;;;;;;;;;;;;;;;9.68;74.42;93809.41;5056392;28;1979;-54
2023/03/27 12:02:30;;;;;;;;;;;;;;;9.63;74.51;93806.47;5056361;28;1645;-54
2023/03/27 12:04:59;;;;;;;;;;;;;;;9.67;77.45;93789.88;5056569;28;1001;-54
2023/03/27 12:07:26;;;;;;;;;;;;;;;9.73;76.00;93785.63;5056185;28;1041;-54
2023/03/27 12:09:52;;;;;;;;;;;;;;;9.76;74.79;93774.59;5052560;28;1351;-54
2023/03/27 12:12:21;;;;;;;;;;;;;;;9.76;76.22;93763.91;5056200;28;968;-55
2023/03/27 12:14:50;;;;;;;;;;;;;;;9.83;78.04;93764.81;5056012;28;1040;-54
2023/03/27 12:17:52;;;;;;;;;;;;;;;9.78;77.91;93757.34;5056174;28;1021;-55
2023/03/27 12:20:26;;;;;;;;;;;;;;;9.92;78.42;93739.66;5004732;28;1902;-55
2023/03/27 12:22:57;;;;;;;;;;;;;;;9.99;77.25;93741.53;5032885;28;1054;-54
2023/03/27 12:25:29;;;;;;;;;;;;;;;9.97;78.17;93725.72;5035924;28;1117;-55
2023/03/27 12:28:07;;;;;;;;;;;;;;;9.99;77.00;93714.84;5034865;28;1054;-55
2023/03/27 12:30:57;;;;;;;;;;;;;;;9.94;78.31;93694.91;5048317;28;1189;-55
2023/03/27 12:33:23;;;;;;;;;;;;;;;10.04;75.38;93677.72;5044405;28;1082;-54
2023/03/27 12:35:51;;;;;;;;;;;;;;;10.05;77.81;93666.81;5055669;28;1112;-54
2023/03/27 12:38:21;;;;;;;;;;;;;;;10.02;75.05;93645.06;5055801;28;964;-54
2023/03/27 12:40:58;;;;;;;;;;;;;;;9.82;80.31;93644.88;5055600;28;1902;-55
2023/03/27 12:43:28;;;;;;;;;;;;;;;9.60;78.49;93641.41;5055480;28;1158;-54
2023/03/27 12:46:10;;;;;;;;;;;;;;;9.50;79.70;93631.06;5054743;28;996;-54
2023/03/27 12:48:51;;;;;;;;;;;;;;;9.49;79.24;93640.91;5055633;28;1061;-55
2023/03/27 12:51:18;;;;;;;;;;;;;;;9.52;82.57;93640.53;5055413;28;1035;-55
2023/03/27 12:53:46;;;;;;;;;;;;;;;9.59;83.08;93645.91;5054551;28;1051;-55
2023/03/27 12:56:15;;;;;;;;;;;;;;;9.52;81.51;93635.22;5055258;28;1057;-54
2023/03/27 12:58:46;;;;;;;;;;;;;;;9.50;82.31;93623.06;5055208;28;1084;-54
2023/03/27 13:01:22;;;;;;;;;;;;;;;9.53;84.13;93628.84;5055279;28;1977;-55
2023/03/27 13:03:51;;;;;;;;;;;;;;;9.52;83.69;93629.88;5055498;28;976;-55
2023/03/27 13:06:23;;;;;;;;;;;;;;;9.73;82.16;93625.50;5055128;28;1065;-55
2023/03/27 13:08:55;;;;;;;;;;;;;;;10.08;80.65;93618.38;5055228;28;1140;-55
2023/03/27 13:11:33;;;;;;;;;;;;;;;10.34;81.07;93620.41;5054775;28;1296;-55
2023/03/27 13:14:32;;;;;;;;;;;;;;;10.33;76.65;93637.47;5054993;28;1041;-55
2023/03/27 13:17:03;;;;;;;;;;;;;;;10.45;80.03;93671.63;5021489;28;1297;-55
2023/03/27 13:19:32;;;;;;;;;;;;;;;10.60;79.22;93664.31;5054543;28;1907;-55
2023/03/27 13:22:05;;;;;;;;;;;;;;;10.69;78.76;93656.97;5055208;28;980;-55